Time;durP1;ratioP1;P1;durP2;ratioP2;P2;SDS_P1;SDS_P2;PMS_P1;PMS_P2;Temp;Humidity;BMP_temperature;BMP_pressure;BME280_temperature;BME280_humidity;BME280_pressure;Samples;Min_cycle;Max_cycle;Signal;HPM_P1;HPM_P2
2023/05/02 00:00:50;;;;;;;1.90;1.70;;;8.90;99.90;;;;;;5109970;28;20657;-69
2023/05/02 00:03:18;;;;;;;4.70;3.17;;;8.90;99.90;;;;;;5097653;27;20675;-70
2023/05/02 00:05:45;;;;;;;2.77;2.30;;;8.80;99.90;;;;;;5106659;28;20654;-69
2023/05/02 00:08:12;;;;;;;3.27;3.00;;;8.70;99.90;;;;;;5111558;28;20629;-69
2023/05/02 00:10:39;;;;;;;4.07;3.70;;;8.60;99.90;;;;;;5111245;28;20644;-69
2023/05/02 00:13:06;;;;;;;2.93;2.27;;;8.60;99.90;;;;;;5098083;28;20622;-69
2023/05/02 00:15:32;;;;;;;3.00;2.80;;;8.60;99.90;;;;;;5110620;28;20665;-70
2023/05/02 00:18:00;;;;;;;2.50;2.30;;;8.50;99.90;;;;;;5091859;28;20625;-69
2023/05/02 00:20:28;;;;;;;2.80;2.60;;;8.60;99.90;;;;;;5090724;28;20746;-69
2023/05/02 00:22:56;;;;;;;3.03;1.80;;;8.60;99.90;;;;;;5090921;28;20659;-69
2023/05/02 00:25:22;;;;;;;1.90;1.60;;;8.60;99.90;;;;;;5092550;28;20631;-69
2023/05/02 00:27:49;;;;;;;4.20;3.27;;;8.60;99.90;;;;;;5091769;28;20639;-69
2023/05/02 00:30:17;;;;;;;2.53;2.33;;;8.60;99.90;;;;;;5108554;28;20636;-69
2023/05/02 00:32:44;;;;;;;3.60;2.50;;;8.60;99.90;;;;;;5098451;28;20648;-69
2023/05/02 00:35:11;;;;;;;2.27;2.17;;;8.60;99.90;;;;;;5111675;28;20628;-69
2023/05/02 00:37:42;;;;;;;3.67;2.77;;;8.60;99.90;;;;;;5108314;28;20623;-69
2023/05/02 00:40:10;;;;;;;2.87;2.43;;;8.50;99.90;;;;;;5100906;28;20635;-69
2023/05/02 00:42:36;;;;;;;3.60;3.30;;;8.50;99.90;;;;;;5108777;28;20676;-69
2023/05/02 00:45:05;;;;;;;5.40;3.50;;;8.50;99.90;;;;;;5109216;28;20622;-69
2023/05/02 00:47:32;;;;;;;4.40;2.47;;;8.50;99.90;;;;;;5098598;28;20629;-69
2023/05/02 00:49:59;;;;;;;2.63;2.43;;;8.50;99.90;;;;;;5109576;28;20618;-70
2023/05/02 00:52:26;;;;;;;2.27;2.10;;;8.40;99.90;;;;;;5110025;28;20657;-69
2023/05/02 00:54:55;;;;;;;4.40;3.70;;;8.40;99.90;;;;;;5098143;28;20628;-69
2023/05/02 00:57:22;;;;;;;4.53;3.10;;;8.30;99.90;;;;;;5090728;28;20758;-69
2023/05/02 00:59:49;;;;;;;3.13;2.83;;;8.30;99.90;;;;;;5104212;28;20997;-69
2023/05/02 01:02:28;;;;;;;2.77;2.20;;;8.30;99.90;;;;;;5096979;28;20677;-69
2023/05/02 01:05:02;;;;;;;8.40;3.17;;;8.40;99.90;;;;;;5101612;28;20718;-69
2023/05/02 01:07:53;;;;;;;1.83;1.73;;;8.30;99.90;;;;;;5090547;28;21175;-70
2023/05/02 01:10:30;;;;;;;2.43;2.20;;;8.40;99.90;;;;;;5089731;28;20623;-69
2023/05/02 01:13:03;;;;;;;5.47;3.10;;;8.30;99.90;;;;;;5103788;28;20640;-68
2023/05/02 01:15:32;;;;;;;2.33;2.13;;;8.40;99.90;;;;;;5103928;28;20649;-69
2023/05/02 01:18:03;;;;;;;1.97;1.83;;;8.30;99.90;;;;;;5097248;28;20656;-68
2023/05/02 01:20:33;;;;;;;3.30;3.10;;;8.30;99.90;;;;;;5089865;28;20745;-69
2023/05/02 01:23:06;;;;;;;3.53;3.23;;;8.30;99.90;;;;;;5090358;28;20762;-69
2023/05/02 01:26:02;;;;;;;2.90;2.70;;;8.30;99.90;;;;;;5090018;28;20708;-68
2023/05/02 01:28:38;;;;;;;3.00;2.70;;;8.30;99.90;;;;;;5096521;28;20648;-68
2023/05/02 01:31:07;;;;;;;2.07;1.90;;;8.30;99.90;;;;;;5094025;28;20646;-69
2023/05/02 01:33:36;;;;;;;4.00;3.07;;;8.20;99.90;;;;;;5096265;28;20642;-69
2023/05/02 01:36:04;;;;;;;3.03;2.80;;;8.30;99.90;;;;;;5089965;28;21188;-69
2023/05/02 01:38:34;;;;;;;2.97;2.77;;;8.30;99.90;;;;;;5093542;28;20989;-68
2023/05/02 01:41:04;;;;;;;2.97;2.70;;;8.30;99.90;;;;;;5100086;28;20658;-70
2023/05/02 01:43:34;;;;;;;3.40;2.37;;;8.30;99.90;;;;;;5110339;28;20716;-69
2023/05/02 01:46:04;;;;;;;2.20;2.00;;;8.30;99.90;;;;;;5097783;28;20679;-70
2023/05/02 01:48:35;;;;;;;2.87;2.67;;;8.30;99.90;;;;;;5089125;28;20646;-69
2023/05/02 01:51:05;;;;;;;3.17;2.97;;;8.30;99.90;;;;;;5098389;28;20768;-70
2023/05/02 01:53:34;;;;;;;3.03;2.83;;;8.20;99.90;;;;;;5109522;28;20622;-69
2023/05/02 01:56:03;;;;;;;3.70;2.70;;;8.20;99.90;;;;;;5089584;28;20662;-69
2023/05/02 01:58:33;;;;;;;3.43;3.13;;;8.20;99.90;;;;;;5094781;28;20670;-69
2023/05/02 02:01:01;;;;;;;3.20;2.70;;;8.20;99.90;;;;;;5108877;28;20639;-69
2023/05/02 02:03:31;;;;;;;2.80;2.60;;;8.20;99.90;;;;;;5107908;28;20668;-69
2023/05/02 02:06:02;;;;;;;2.60;2.40;;;8.20;99.90;;;;;;5105752;28;20643;-69
2023/05/02 02:08:29;;;;;;;2.73;2.53;;;8.10;99.90;;;;;;5088980;28;21032;-69
2023/05/02 02:11:00;;;;;;;3.65;3.35;;;8.00;99.90;;;;;;5089337;28;20643;-69
2023/05/02 02:13:32;;;;;;;3.05;2.65;;;8.00;99.90;;;;;;5093412;28;20227;-69
2023/05/02 02:16:01;;;;;;;2.93;2.80;;;7.90;99.90;;;;;;5105182;28;20309;-69
2023/05/02 02:18:30;;;;;;;3.50;2.57;;;7.90;99.90;;;;;;5096713;28;20626;-69
2023/05/02 02:21:00;;;;;;;5.40;3.77;;;7.90;99.90;;;;;;5109364;27;20658;-69
2023/05/02 02:23:30;;;;;;;2.20;1.93;;;7.90;99.90;;;;;;5108424;28;20656;-69
2023/05/02 02:25:58;;;;;;;5.90;3.90;;;7.80;99.90;;;;;;5108706;28;20688;-69
2023/05/02 02:28:25;;;;;;;3.00;2.80;;;7.70;99.90;;;;;;5102751;28;20721;-68
2023/05/02 02:30:53;;;;;;;2.80;2.33;;;7.70;99.90;;;;;;5093581;28;21069;-69
2023/05/02 02:33:20;;;;;;;4.70;2.50;;;7.70;99.90;;;;;;5105039;28;20303;-69
2023/05/02 02:35:55;;;;;;;4.00;2.73;;;7.70;99.90;;;;;;5109151;28;20650;-69
2023/05/02 02:38:35;;;;;;;2.50;2.03;;;7.80;99.90;;;;;;5108042;28;20617;-69
2023/05/02 02:41:12;;;;;;;4.32;4.00;;;7.70;99.90;;;;;;5109065;28;20650;-69
2023/05/02 02:43:48;;;;;;;2.73;2.53;;;7.70;99.90;;;;;;5108186;28;20684;-69
2023/05/02 02:46:27;;;;;;;3.50;2.07;;;7.80;99.90;;;;;;5101075;28;20646;-69
2023/05/02 02:49:06;;;;;;;2.07;1.97;;;7.70;99.90;;;;;;5104194;28;20639;-69
2023/05/02 02:51:44;;;;;;;3.10;2.77;;;7.80;99.90;;;;;;5108493;28;20661;-69
2023/05/02 02:54:19;;;;;;;2.67;2.13;;;7.80;99.90;;;;;;5102625;28;21210;-69
2023/05/02 02:56:57;;;;;;;4.93;3.33;;;7.70;99.90;;;;;;5101602;28;21113;-69
2023/05/02 02:59:29;;;;;;;3.57;2.50;;;7.70;99.90;;;;;;5108519;28;20666;-70
2023/05/02 03:02:08;;;;;;;3.20;2.90;;;7.70;99.90;;;;;;5092927;28;20654;-69
2023/05/02 03:04:39;;;;;;;4.20;2.97;;;7.70;99.90;;;;;;5088669;28;20634;-69
2023/05/02 03:07:07;;;;;;;2.40;2.30;;;7.50;99.90;;;;;;5089559;28;21057;-69
2023/05/02 03:09:42;;;;;;;3.97;3.60;;;7.60;99.90;;;;;;5107547;28;20642;-69
2023/05/02 03:12:10;;;;;;;2.93;2.73;;;7.60;99.90;;;;;;5099892;28;20659;-69
2023/05/02 03:14:38;;;;;;;2.27;2.07;;;7.60;99.90;;;;;;5088575;28;20623;-69
2023/05/02 03:17:07;;;;;;;2.40;2.20;;;7.60;99.90;;;;;;5090940;28;20651;-69
2023/05/02 03:19:34;;;;;;;3.60;3.33;;;7.70;99.90;;;;;;5107321;28;20644;-69
2023/05/02 03:22:00;;;;;;;3.23;2.97;;;7.70;99.90;;;;;;5101310;28;20642;-69
2023/05/02 03:24:27;;;;;;;3.40;2.67;;;7.70;99.90;;;;;;5108464;28;20696;-69
2023/05/02 03:26:57;;;;;;;3.80;3.20;;;7.80;99.90;;;;;;5108136;28;20729;-69
2023/05/02 03:29:25;;;;;;;4.73;3.67;;;7.80;99.90;;;;;;5092543;28;20615;-69
2023/05/02 03:31:51;;;;;;;2.60;2.40;;;7.90;99.90;;;;;;5091110;28;20701;-69
2023/05/02 03:34:20;;;;;;;1.83;1.73;;;8.00;99.90;;;;;;5090828;28;20696;-70
2023/05/02 03:36:47;;;;;;;4.10;3.40;;;8.10;99.90;;;;;;5087290;28;20728;-69
2023/05/02 03:39:14;;;;;;;3.13;2.87;;;8.10;99.90;;;;;;5096516;28;20622;-69
2023/05/02 03:41:42;;;;;;;2.60;2.27;;;8.10;99.90;;;;;;5106113;28;20650;-69
2023/05/02 03:44:11;;;;;;;2.80;2.60;;;8.20;99.90;;;;;;5087972;28;21272;-69
2023/05/02 03:46:37;;;;;;;3.80;2.57;;;8.20;99.90;;;;;;5087648;28;21191;-69
2023/05/02 03:49:04;;;;;;;2.77;2.50;;;8.20;99.90;;;;;;5099831;28;20718;-69
2023/05/02 03:51:32;;;;;;;2.70;2.50;;;8.30;99.90;;;;;;5108063;28;20639;-69
2023/05/02 03:54:00;;;;;;;5.33;4.10;;;8.30;99.90;;;;;;5095416;28;20988;-69
2023/05/02 03:56:27;;;;;;;3.50;3.20;;;8.30;99.90;;;;;;5108276;28;20638;-69
2023/05/02 03:58:54;;;;;;;3.73;2.00;;;8.30;99.90;;;;;;5101148;28;21201;-69
2023/05/02 04:01:22;;;;;;;3.07;2.40;;;8.30;99.90;;;;;;5088115;28;21013;-69
2023/05/02 04:03:50;;;;;;;2.53;2.40;;;8.40;99.90;;;;;;5087419;28;20658;-69
2023/05/02 04:06:17;;;;;;;2.20;2.07;;;8.40;99.90;;;;;;5087878;28;20654;-69
2023/05/02 04:08:43;;;;;;;3.27;2.57;;;8.50;99.90;;;;;;5087180;28;20731;-69
2023/05/02 04:11:10;;;;;;;7.13;3.17;;;8.50;99.90;;;;;;5087735;28;20661;-69
2023/05/02 04:13:37;;;;;;;2.50;2.30;;;8.60;99.90;;;;;;5086932;28;20623;-69
2023/05/02 04:16:04;;;;;;;3.13;2.83;;;8.60;99.90;;;;;;5094270;28;20659;-69
2023/05/02 04:18:32;;;;;;;2.53;2.10;;;8.60;99.90;;;;;;5099535;28;20632;-69
2023/05/02 04:20:59;;;;;;;2.87;2.67;;;8.60;99.90;;;;;;5087826;28;21048;-69
2023/05/02 04:23:26;;;;;;;3.23;2.87;;;8.70;99.90;;;;;;5088721;28;20826;-69
2023/05/02 04:25:53;;;;;;;3.00;2.37;;;8.70;99.90;;;;;;5087389;28;20653;-69
2023/05/02 04:28:21;;;;;;;4.37;3.57;;;8.80;99.90;;;;;;5087043;28;20638;-69
2023/05/02 04:30:48;;;;;;;3.67;3.13;;;8.80;99.90;;;;;;5086717;28;20655;-70
2023/05/02 04:33:15;;;;;;;2.67;2.43;;;8.80;99.90;;;;;;5087680;28;20636;-70
2023/05/02 04:35:43;;;;;;;2.87;2.67;;;8.80;99.90;;;;;;5087798;28;20694;-70
2023/05/02 04:38:10;;;;;;;2.70;2.50;;;8.80;99.90;;;;;;5092879;28;20976;-70
2023/05/02 04:40:37;;;;;;;3.47;3.07;;;8.80;99.90;;;;;;5107096;28;20657;-70
2023/05/02 04:43:04;;;;;;;3.47;3.20;;;8.90;99.90;;;;;;5107178;28;20651;-70
2023/05/02 04:45:31;;;;;;;3.13;2.37;;;8.90;99.90;;;;;;5105925;28;20654;-70
2023/05/02 04:47:58;;;;;;;3.03;2.70;;;8.90;99.90;;;;;;5096675;28;20639;-70
2023/05/02 04:50:24;;;;;;;3.10;2.90;;;9.00;99.90;;;;;;5110149;28;20984;-68
2023/05/02 04:52:52;;;;;;;3.77;3.47;;;9.00;99.90;;;;;;5110057;28;20745;-70
2023/05/02 04:55:19;;;;;;;5.43;4.20;;;9.00;99.90;;;;;;5094732;28;20635;-70
2023/05/02 04:57:46;;;;;;;3.53;3.07;;;9.00;99.90;;;;;;5096187;28;20631;-70
2023/05/02 05:00:14;;;;;;;3.50;3.07;;;9.00;99.90;;;;;;5109615;28;20827;-70
2023/05/02 05:02:41;;;;;;;4.50;3.83;;;9.00;99.90;;;;;;5109976;28;20705;-72
2023/05/02 05:05:08;;;;;;;5.33;4.53;;;9.00;99.90;;;;;;5110751;28;20658;-71
2023/05/02 05:07:37;;;;;;;6.03;3.10;;;9.00;99.90;;;;;;5110268;28;21296;-72
2023/05/02 05:10:07;;;;;;;3.97;3.33;;;9.00;99.90;;;;;;5109943;28;20625;-69
2023/05/02 05:12:34;;;;;;;2.93;2.73;;;9.00;99.90;;;;;;5108753;28;21048;-70
2023/05/02 05:15:00;;;;;;;3.93;3.63;;;9.00;99.90;;;;;;5098427;28;20983;-70
2023/05/02 05:17:27;;;;;;;4.03;3.67;;;9.00;99.90;;;;;;5098736;28;20723;-70
2023/05/02 05:19:54;;;;;;;3.53;3.30;;;9.00;99.90;;;;;;5090252;28;20965;-70
2023/05/02 05:22:21;;;;;;;3.30;2.93;;;9.00;99.90;;;;;;5090948;28;20668;-70
2023/05/02 05:24:54;;;;;;;3.80;3.40;;;9.10;99.90;;;;;;5109995;28;20676;-69
2023/05/02 05:27:22;;;;;;;3.90;3.60;;;9.10;99.90;;;;;;5109320;28;20656;-70
2023/05/02 05:29:49;;;;;;;5.20;3.70;;;9.10;99.90;;;;;;5109170;28;20617;-69
2023/05/02 05:32:16;;;;;;;5.17;3.10;;;9.20;99.90;;;;;;5109483;28;21259;-70
2023/05/02 05:34:42;;;;;;;4.40;3.73;;;9.20;99.90;;;;;;5109695;28;20969;-70
2023/05/02 05:37:09;;;;;;;4.23;3.37;;;9.20;99.90;;;;;;5108639;28;20647;-70
2023/05/02 05:39:36;;;;;;;4.00;3.70;;;9.20;99.90;;;;;;5109152;28;20699;-70
2023/05/02 05:42:04;;;;;;;5.23;3.07;;;9.30;99.90;;;;;;5109691;28;20646;-69
2023/05/02 05:44:33;;;;;;;5.70;3.73;;;9.40;99.90;;;;;;5109780;27;20670;-70
2023/05/02 05:46:59;;;;;;;4.30;3.90;;;9.40;99.90;;;;;;5109585;28;20658;-70
2023/05/02 05:49:26;;;;;;;3.57;3.27;;;9.50;99.90;;;;;;5109209;28;20625;-69
2023/05/02 05:51:53;;;;;;;3.27;2.87;;;9.60;99.90;;;;;;5109482;28;20654;-70
2023/05/02 05:54:20;;;;;;;3.97;3.27;;;9.50;99.90;;;;;;5109207;27;21001;-70
2023/05/02 05:56:47;;;;;;;4.47;4.07;;;9.60;99.90;;;;;;5109505;28;20650;-70
2023/05/02 05:59:13;;;;;;;5.27;3.70;;;9.60;99.90;;;;;;5108948;28;20670;-70
2023/05/02 06:01:42;;;;;;;6.23;3.80;;;9.60;99.90;;;;;;5109165;28;21212;-70
2023/05/02 06:04:09;;;;;;;7.53;4.93;;;9.70;99.90;;;;;;5109042;28;20660;-70
2023/05/02 06:06:36;;;;;;;4.47;4.07;;;9.70;99.90;;;;;;5108720;28;20645;-70
2023/05/02 06:09:03;;;;;;;4.97;4.50;;;9.70;99.90;;;;;;5108858;28;20629;-70
2023/05/02 06:11:30;;;;;;;4.13;3.40;;;9.70;99.90;;;;;;5109106;28;20651;-70
2023/05/02 06:13:56;;;;;;;6.10;5.20;;;9.70;99.90;;;;;;5109307;28;20646;-70
2023/05/02 06:16:23;;;;;;;3.80;3.37;;;9.80;99.90;;;;;;5109122;28;20654;-70
2023/05/02 06:18:52;;;;;;;5.87;4.83;;;9.80;99.90;;;;;;5108531;28;20618;-70
2023/05/02 06:21:19;;;;;;;5.83;4.53;;;9.80;99.90;;;;;;5108670;28;20643;-70
2023/05/02 06:23:46;;;;;;;5.77;5.17;;;9.80;99.90;;;;;;5109090;28;20783;-70
2023/05/02 06:26:13;;;;;;;5.63;4.00;;;9.90;99.90;;;;;;5109021;28;20645;-70
2023/05/02 06:28:40;;;;;;;10.73;5.33;;;9.90;99.90;;;;;;5108456;28;21235;-70
2023/05/02 06:31:06;;;;;;;8.20;6.17;;;9.90;99.90;;;;;;5108840;27;20638;-70
2023/05/02 06:33:34;;;;;;;5.37;4.13;;;9.90;99.90;;;;;;5108652;28;20627;-70
2023/05/02 06:36:02;;;;;;;5.67;4.80;;;9.90;99.90;;;;;;5108508;27;21350;-70
2023/05/02 06:38:29;;;;;;;5.20;4.80;;;9.90;99.90;;;;;;5107772;28;20735;-70
2023/05/02 06:40:56;;;;;;;5.67;4.23;;;10.00;99.90;;;;;;5108902;27;20642;-70
2023/05/02 06:43:23;;;;;;;8.10;7.33;;;10.10;99.90;;;;;;5108755;28;20619;-70
2023/05/02 06:45:53;;;;;;;6.13;4.53;;;10.20;99.90;;;;;;5108733;28;20712;-70
2023/05/02 06:48:20;;;;;;;8.77;4.90;;;10.20;99.90;;;;;;5107563;28;21030;-70
2023/05/02 06:50:47;;;;;;;9.77;5.53;;;10.30;99.90;;;;;;5108372;28;20646;-70
2023/05/02 06:53:15;;;;;;;9.57;7.33;;;10.40;99.90;;;;;;5109017;28;21030;-70
2023/05/02 06:55:42;;;;;;;7.47;5.87;;;10.30;99.90;;;;;;5108395;27;20642;-70
2023/05/02 06:58:08;;;;;;;6.33;5.77;;;10.40;99.90;;;;;;5108374;28;20978;-70
2023/05/02 07:00:35;;;;;;;6.30;5.33;;;10.40;99.90;;;;;;5107700;28;21187;-70
2023/05/02 07:03:02;;;;;;;8.40;5.00;;;10.50;99.90;;;;;;5107560;28;20961;-70
2023/05/02 07:05:29;;;;;;;8.53;6.63;;;10.50;99.90;;;;;;5108303;28;20673;-70
2023/05/02 07:07:56;;;;;;;8.20;6.23;;;10.60;99.90;;;;;;5108471;28;20688;-70
2023/05/02 07:10:24;;;;;;;8.73;7.30;;;10.60;99.90;;;;;;5107191;28;20629;-70
2023/05/02 07:12:51;;;;;;;8.17;6.63;;;10.60;99.90;;;;;;5108159;28;20642;-70
2023/05/02 07:15:18;;;;;;;9.90;6.77;;;10.60;99.90;;;;;;5107643;28;20621;-70
2023/05/02 07:17:46;;;;;;;10.97;7.50;;;10.50;99.90;;;;;;5108019;28;20999;-70
2023/05/02 07:20:14;;;;;;;8.67;5.83;;;10.50;99.90;;;;;;5107364;28;20953;-70
2023/05/02 07:22:41;;;;;;;9.10;7.00;;;10.50;99.90;;;;;;5108264;28;20984;-70
2023/05/02 07:25:08;;;;;;;11.63;8.00;;;10.60;99.90;;;;;;5108054;28;20763;-70
2023/05/02 07:27:37;;;;;;;13.47;7.30;;;10.60;99.90;;;;;;5107990;28;20617;-70
2023/05/02 07:30:04;;;;;;;11.30;8.33;;;10.60;99.90;;;;;;5106708;28;21173;-70
2023/05/02 07:32:31;;;;;;;9.00;6.93;;;10.50;99.90;;;;;;5107529;28;20639;-71
2023/05/02 07:34:58;;;;;;;9.23;7.90;;;10.60;99.90;;;;;;5108422;28;20627;-70
2023/05/02 07:37:25;;;;;;;10.30;7.80;;;10.60;99.90;;;;;;5106983;28;20660;-70
2023/05/02 07:39:51;;;;;;;19.63;10.93;;;10.60;99.90;;;;;;5107426;28;20628;-70
2023/05/02 07:42:18;;;;;;;12.43;8.60;;;10.70;99.90;;;;;;5107535;28;20655;-71
2023/05/02 07:44:46;;;;;;;7.33;6.60;;;10.80;99.90;;;;;;5107344;28;21517;-70
2023/05/02 07:47:13;;;;;;;9.67;7.10;;;10.70;99.90;;;;;;5107673;28;20661;-70
2023/05/02 07:49:40;;;;;;;9.93;8.57;;;10.70;99.90;;;;;;5107367;28;20980;-70
2023/05/02 07:52:07;;;;;;;12.07;7.60;;;10.80;99.90;;;;;;5107620;28;20742;-70
2023/05/02 07:54:34;;;;;;;13.43;7.57;;;10.90;99.90;;;;;;5108284;28;20636;-70
2023/05/02 07:57:02;;;;;;;9.97;7.33;;;10.90;99.90;;;;;;5106874;28;20657;-70
2023/05/02 07:59:30;;;;;;;11.10;9.10;;;11.00;99.90;;;;;;5107030;28;21409;-70
2023/05/02 08:01:58;;;;;;;24.03;8.30;;;11.10;99.90;;;;;;5107926;28;20695;-70
2023/05/02 08:04:25;;;;;;;8.70;6.90;;;11.20;99.90;;;;;;5107444;28;20657;-70
2023/05/02 08:06:52;;;;;;;12.17;7.60;;;11.30;99.90;;;;;;5107467;28;20709;-70
2023/05/02 08:09:19;;;;;;;9.27;6.20;;;11.30;99.90;;;;;;5107044;28;20626;-70
2023/05/02 08:11:45;;;;;;;10.77;7.03;;;11.40;99.90;;;;;;5107297;28;20653;-70
2023/05/02 08:14:12;;;;;;;15.07;8.43;;;11.50;99.90;;;;;;5107804;28;20656;-70
2023/05/02 08:16:39;;;;;;;8.30;6.87;;;11.50;99.90;;;;;;5107659;28;20653;-70
2023/05/02 08:19:07;;;;;;;11.47;7.07;;;11.50;99.90;;;;;;5106840;28;20614;-70
2023/05/02 08:21:34;;;;;;;14.57;10.07;;;11.40;99.90;;;;;;5107437;28;20696;-70
2023/05/02 08:24:01;;;;;;;14.03;8.00;;;11.50;99.90;;;;;;5111128;28;20631;-69
2023/05/02 08:26:28;;;;;;;12.73;9.80;;;11.50;99.90;;;;;;5111057;28;20647;-70
2023/05/02 08:28:55;;;;;;;13.03;9.33;;;11.50;99.90;;;;;;5110782;28;20952;-71
2023/05/02 08:31:22;;;;;;;10.00;8.07;;;11.60;99.90;;;;;;5110926;28;20661;-70
2023/05/02 08:33:49;;;;;;;8.90;7.53;;;11.60;99.90;;;;;;5110793;28;20624;-70
2023/05/02 08:36:18;;;;;;;15.90;9.60;;;11.60;99.90;;;;;;5110985;28;20974;-70
2023/05/02 08:38:46;;;;;;;16.13;10.50;;;11.60;99.90;;;;;;5109894;28;21189;-70
2023/05/02 08:41:14;;;;;;;11.60;8.93;;;11.60;99.90;;;;;;5111070;28;20654;-70
2023/05/02 08:43:41;;;;;;;11.10;7.70;;;11.70;99.90;;;;;;5110830;27;20629;-70
2023/05/02 08:46:10;;;;;;;11.13;8.37;;;11.90;99.90;;;;;;5110820;28;20679;-69
2023/05/02 08:48:37;;;;;;;13.63;9.97;;;11.90;99.90;;;;;;5110603;28;20626;-69
2023/05/02 08:51:04;;;;;;;13.80;7.87;;;12.10;99.90;;;;;;5110615;28;20654;-69
2023/05/02 08:53:34;;;;;;;12.23;8.47;;;12.30;99.90;;;;;;5110059;28;20799;-69
2023/05/02 08:56:02;;;;;;;11.20;10.10;;;12.40;99.90;;;;;;5110701;28;20658;-69
2023/05/02 08:58:29;;;;;;;10.03;8.53;;;12.40;99.90;;;;;;5110288;28;20684;-69
2023/05/02 09:01:00;;;;;;;15.00;9.87;;;12.40;99.90;;;;;;5110588;28;20678;-69
2023/05/02 09:03:31;;;;;;;12.67;9.17;;;12.50;99.90;;;;;;5110796;28;20731;-70
2023/05/02 09:06:04;;;;;;;12.10;9.90;;;12.60;99.90;;;;;;5109662;28;20739;-70
2023/05/02 09:08:33;;;;;;;11.87;7.93;;;12.90;99.90;;;;;;5109911;28;20627;-69
2023/05/02 09:11:00;;;;;;;11.50;7.00;;;13.10;99.90;;;;;;5110160;28;20667;-69
2023/05/02 09:13:35;;;;;;;11.77;7.13;;;13.20;99.90;;;;;;5110767;28;20621;-69
2023/05/02 09:16:03;;;;;;;11.30;7.47;;;13.30;99.90;;;;;;5110565;27;20974;-69
2023/05/02 09:18:32;;;;;;;11.37;8.40;;;13.40;99.90;;;;;;5109680;28;20627;-69
2023/05/02 09:21:00;;;;;;;8.77;6.97;;;13.50;99.90;;;;;;5110265;28;21234;-69
2023/05/02 09:23:40;;;;;;;7.77;6.10;;;13.60;99.90;;;;;;5110527;28;20613;-69
2023/05/02 09:26:15;;;;;;;13.57;6.53;;;13.80;99.90;;;;;;5110213;28;21060;-69
2023/05/02 09:28:44;;;;;;;7.57;5.50;;;13.60;99.90;;;;;;5109571;28;20615;-69
2023/05/02 09:31:12;;;;;;;8.70;6.40;;;13.70;99.90;;;;;;5109999;27;20691;-69
2023/05/02 09:33:40;;;;;;;9.50;8.03;;;13.90;99.90;;;;;;5109443;28;20622;-70
2023/05/02 09:36:08;;;;;;;9.10;7.90;;;13.90;99.90;;;;;;5110115;28;21034;-69
2023/05/02 09:38:35;;;;;;;8.83;6.60;;;13.90;99.90;;;;;;5109468;28;20628;-68
2023/05/02 09:41:04;;;;;;;11.30;7.23;;;13.80;99.90;;;;;;5109794;28;20643;-68
2023/05/02 09:43:32;;;;;;;7.80;6.07;;;13.60;99.90;;;;;;5109536;28;20631;-69
2023/05/02 09:46:00;;;;;;;10.40;7.00;;;13.70;99.90;;;;;;5109819;28;20672;-69
2023/05/02 09:48:28;;;;;;;9.20;6.20;;;13.60;99.90;;;;;;5109288;28;20724;-69
2023/05/02 09:50:55;;;;;;;7.73;5.90;;;13.70;99.90;;;;;;5109632;27;20653;-68
2023/05/02 09:53:22;;;;;;;9.83;7.57;;;13.50;99.90;;;;;;5110252;28;20623;-68
2023/05/02 09:55:48;;;;;;;6.37;4.70;;;13.40;99.90;;;;;;5109418;28;20688;-68
2023/05/02 09:58:24;;;;;;;8.77;6.87;;;13.50;99.90;;;;;;5109632;28;20704;-68
2023/05/02 10:00:51;;;;;;;8.40;5.67;;;13.60;99.90;;;;;;5109697;28;20648;-68
2023/05/02 10:03:19;;;;;;;9.00;7.13;;;13.80;99.90;;;;;;5109396;28;20616;-69
2023/05/02 10:05:46;;;;;;;11.37;6.77;;;13.80;99.90;;;;;;5109216;28;20677;-68
2023/05/02 10:08:14;;;;;;;12.13;6.30;;;14.20;99.90;;;;;;5108871;28;20616;-68
2023/05/02 10:10:43;;;;;;;9.37;7.93;;;14.50;99.70;;;;;;5108868;28;20997;-68
2023/05/02 10:13:12;;;;;;;9.93;7.43;;;15.00;99.90;;;;;;5109476;28;20609;-69
2023/05/02 10:15:44;;;;;;;10.30;6.67;;;15.40;99.20;;;;;;5109124;28;20653;-68
2023/05/02 10:18:21;;;;;;;8.73;7.23;;;15.40;98.00;;;;;;5109499;28;20732;-68
2023/05/02 10:20:56;;;;;;;11.03;6.47;;;15.50;98.10;;;;;;5108218;28;20674;-68
2023/05/02 10:23:26;;;;;;;11.47;6.53;;;14.80;97.70;;;;;;5109604;28;20629;-68
2023/05/02 10:25:53;;;;;;;8.83;6.67;;;14.80;97.80;;;;;;5108963;28;20672;-68
2023/05/02 10:28:21;;;;;;;9.30;6.43;;;14.60;98.30;;;;;;5108892;28;20620;-67
2023/05/02 10:30:50;;;;;;;7.83;6.10;;;14.50;98.20;;;;;;5108584;28;20653;-68
2023/05/02 10:33:18;;;;;;;7.80;7.00;;;14.50;97.50;;;;;;5106309;28;20629;-68
2023/05/02 10:35:46;;;;;;;10.60;6.93;;;14.70;98.20;;;;;;5087054;28;20649;-69
2023/05/02 10:38:18;;;;;;;8.57;6.43;;;14.80;98.10;;;;;;5097975;28;20630;-69
2023/05/02 10:40:54;;;;;;;8.53;6.70;;;15.10;98.00;;;;;;5106024;28;20664;-70
2023/05/02 10:43:25;;;;;;;8.70;6.17;;;15.60;97.40;;;;;;5108766;28;21092;-70
2023/05/02 10:45:54;;;;;;;8.10;6.47;;;16.10;97.00;;;;;;5106885;27;20670;-70
2023/05/02 10:48:23;;;;;;;6.37;5.50;;;16.50;95.70;;;;;;5107411;28;20662;-70
2023/05/02 10:50:52;;;;;;;6.37;5.73;;;16.70;95.00;;;;;;5100050;27;20658;-69
2023/05/02 10:53:32;;;;;;;9.30;5.70;;;16.80;93.80;;;;;;5091637;28;21243;-69
2023/05/02 10:56:17;;;;;;;9.10;5.70;;;17.10;94.00;;;;;;5100087;28;20650;-69
2023/05/02 10:58:44;;;;;;;6.30;5.27;;;16.50;90.10;;;;;;5101490;28;20663;-68
2023/05/02 11:01:38;;;;;;;5.87;5.20;;;16.80;92.00;;;;;;5108198;28;21214;-69
2023/05/02 11:04:11;;;;;;;8.77;6.13;;;16.60;91.50;;;;;;5100637;28;20627;-69
2023/05/02 11:07:22;;;;;;;6.93;5.33;;;16.40;90.90;;;;;;5088769;28;21029;-69
2023/05/02 11:09:49;;;;;;;5.60;5.03;;;16.40;92.10;;;;;;5076112;28;20688;-69
2023/05/02 11:12:46;;;;;;;5.93;4.83;;;16.40;92.40;;;;;;5097874;28;20653;-68
2023/05/02 11:15:13;;;;;;;4.87;4.40;;;16.70;92.60;;;;;;5103958;28;20930;-69
2023/05/02 11:18:00;;;;;;;5.70;5.13;;;16.80;91.50;;;;;;5105763;28;20667;-69
2023/05/02 11:20:27;;;;;;;5.47;4.73;;;17.20;91.20;;;;;;5106328;28;20651;-69
2023/05/02 11:22:59;;;;;;;4.73;4.30;;;17.20;90.20;;;;;;5095257;28;20699;-69
2023/05/02 11:25:34;;;;;;;5.93;4.67;;;16.70;90.80;;;;;;5091108;28;20763;-69
2023/05/02 11:28:01;;;;;;;6.37;4.53;;;16.60;91.10;;;;;;5091382;28;20644;-69
2023/05/02 11:30:39;;;;;;;7.70;6.07;;;16.60;91.80;;;;;;5100311;28;21003;-69
2023/05/02 11:33:19;;;;;;;7.87;4.80;;;16.30;92.10;;;;;;5094991;28;20643;-69
2023/05/02 11:35:49;;;;;;;7.70;5.30;;;16.00;91.00;;;;;;5086647;28;20733;-69
2023/05/02 11:38:25;;;;;;;6.03;4.90;;;16.00;92.10;;;;;;5087095;28;21252;-69
2023/05/02 11:40:57;;;;;;;4.87;4.07;;;15.90;91.50;;;;;;5091030;28;20657;-70
2023/05/02 11:43:25;;;;;;;7.27;4.73;;;16.00;92.10;;;;;;5095613;28;20632;-69
2023/05/02 11:45:53;;;;;;;7.50;5.20;;;16.30;91.00;;;;;;5087272;28;20680;-70
2023/05/02 11:48:25;;;;;;;7.20;5.27;;;16.40;89.00;;;;;;5084876;28;20622;-70
2023/05/02 11:50:54;;;;;;;9.63;7.00;;;16.70;90.40;;;;;;5099026;28;20660;-69
2023/05/02 11:53:24;;;;;;;8.30;6.47;;;17.50;91.30;;;;;;5090352;28;20660;-69
2023/05/02 11:55:53;;;;;;;6.77;5.83;;;17.80;90.80;;;;;;5096139;28;21009;-70
2023/05/02 11:58:21;;;;;;;5.67;5.07;;;18.70;91.00;;;;;;5092768;28;20940;-69
2023/05/02 12:00:49;;;;;;;7.67;6.27;;;20.00;87.40;;;;;;5109425;27;21266;-69
2023/05/02 12:03:22;;;;;;;7.87;6.90;;;21.20;84.10;;;;;;5093367;28;20696;-69
2023/05/02 12:05:50;;;;;;;7.03;6.33;;;22.40;81.10;;;;;;5090731;28;21328;-69
2023/05/02 12:08:21;;;;;;;8.00;7.20;;;23.00;75.10;;;;;;5105652;28;20630;-69
2023/05/02 12:10:50;;;;;;;8.03;6.60;;;22.60;72.60;;;;;;5108208;28;20666;-69
2023/05/02 12:13:17;;;;;;;7.37;6.63;;;21.90;75.30;;;;;;5092085;28;20656;-69
2023/05/02 12:15:45;;;;;;;7.40;6.70;;;21.20;74.10;;;;;;5091981;28;20662;-69
2023/05/02 12:18:13;;;;;;;8.17;6.73;;;19.80;76.80;;;;;;5111151;28;21173;-69
2023/05/02 12:20:42;;;;;;;8.67;6.40;;;18.90;78.40;;;;;;5110570;28;21004;-68
2023/05/02 12:23:09;;;;;;;8.47;7.00;;;18.60;80.60;;;;;;5110987;28;21471;-69
2023/05/02 12:25:40;;;;;;;7.80;6.67;;;18.10;81.80;;;;;;5110906;28;20667;-69
2023/05/02 12:28:08;;;;;;;8.67;6.77;;;17.50;81.30;;;;;;5110970;28;20624;-68
2023/05/02 12:30:37;;;;;;;8.20;6.30;;;17.60;84.60;;;;;;5110086;28;20641;-68
2023/05/02 12:33:05;;;;;;;6.10;5.40;;;17.70;84.20;;;;;;5110880;28;20685;-70
2023/05/02 12:35:33;;;;;;;7.70;6.50;;;19.30;85.70;;;;;;5111071;28;21063;-69
2023/05/02 12:38:13;;;;;;;8.47;7.13;;;20.50;78.60;;;;;;5111009;28;21175;-69
2023/05/02 12:40:47;;;;;;;10.63;7.40;;;21.60;77.00;;;;;;5109398;28;20646;-69
2023/05/02 12:43:13;;;;;;;10.50;9.20;;;21.90;72.80;;;;;;5111241;28;20733;-69
2023/05/02 12:45:40;;;;;;;9.50;7.27;;;22.40;73.50;;;;;;5110518;28;20674;-70
2023/05/02 12:48:27;;;;;;;9.43;7.80;;;23.00;70.40;;;;;;5111287;28;20618;-69
2023/05/02 12:50:55;;;;;;;8.57;7.17;;;22.90;68.30;;;;;;5109138;28;20728;-70
2023/05/02 12:53:44;;;;;;;9.63;7.20;;;23.60;70.90;;;;;;5109243;27;20618;-72
2023/05/02 12:56:12;;;;;;;7.33;6.60;;;24.80;68.30;;;;;;5108898;28;20659;-72
2023/05/02 12:58:43;;;;;;;10.40;7.87;;;25.10;64.00;;;;;;5108942;27;20989;-72
2023/05/02 13:01:10;;;;;;;8.40;6.23;;;25.80;64.80;;;;;;5108859;28;20730;-72